sensor_id;sensor_type;location;lat;lon;timestamp;pressure;altitude;pressure_sealevel;temperature;humidity
55263;BME280;41125;48.752;9.168;2023-04-30T00:00:22;97158.06;;;9.74;94.50
55263;BME280;41125;48.752;9.168;2023-04-30T00:00:53;97156.97;;;9.75;94.27
55263;BME280;41125;48.752;9.168;2023-04-30T00:01:25;97155.88;;;9.76;94.10
55263;BME280;41125;48.752;9.168;2023-04-30T00:01:56;97158.59;;;9.76;93.77
55263;BME280;41125;48.752;9.168;2023-04-30T00:02:29;97162.91;;;9.77;94.04
55263;BME280;41125;48.752;9.168;2023-04-30T00:03:00;97161.28;;;9.76;94.01
55263;BME280;41125;48.752;9.168;2023-04-30T00:03:31;97168.31;;;9.77;94.11
55263;BME280;41125;48.752;9.168;2023-04-30T00:04:03;97160.19;;;9.77;94.09
55263;BME280;41125;48.752;9.168;2023-04-30T00:04:34;97163.72;;;9.78;93.95
55263;BME280;41125;48.752;9.168;2023-04-30T00:05:07;97157.50;;;9.77;93.96
55263;BME280;41125;48.752;9.168;2023-04-30T00:05:39;97157.78;;;9.75;93.79
55263;BME280;41125;48.752;9.168;2023-04-30T00:06:10;97157.78;;;9.75;93.99
55263;BME280;41125;48.752;9.168;2023-04-30T00:06:41;97165.09;;;9.75;93.88
55263;BME280;41125;48.752;9.168;2023-04-30T00:07:13;97158.59;;;9.76;93.95
55263;BME280;41125;48.752;9.168;2023-04-30T00:07:44;97167.00;;;9.74;94.15
55263;BME280;41125;48.752;9.168;2023-04-30T00:08:15;97158.06;;;9.74;94.63
55263;BME280;41125;48.752;9.168;2023-04-30T00:08:46;97160.75;;;9.74;94.61
55263;BME280;41125;48.752;9.168;2023-04-30T00:09:19;97167.25;;;9.73;94.56
55263;BME280;41125;48.752;9.168;2023-04-30T00:09:50;97167.25;;;9.73;95.38
55263;BME280;41125;48.752;9.168;2023-04-30T00:10:21;97158.59;;;9.71;95.23
55263;BME280;41125;48.752;9.168;2023-04-30T00:10:52;97163.53;;;9.69;95.10
55263;BME280;41125;48.752;9.168;2023-04-30T00:11:23;97161.66;;;9.64;95.18
55263;BME280;41125;48.752;9.168;2023-04-30T00:11:55;97163.28;;;9.65;95.16
55263;BME280;41125;48.752;9.168;2023-04-30T00:12:26;97162.47;;;9.65;95.13
55263;BME280;41125;48.752;9.168;2023-04-30T00:12:58;97164.09;;;9.66;95.09
55263;BME280;41125;48.752;9.168;2023-04-30T00:13:29;97157.56;;;9.67;95.17
55263;BME280;41125;48.752;9.168;2023-04-30T00:14:00;97154.06;;;9.66;94.86
55263;BME280;41125;48.752;9.168;2023-04-30T00:14:31;97161.38;;;9.66;95.01
55263;BME280;41125;48.752;9.168;2023-04-30T00:15:03;97164.91;;;9.66;94.87
55263;BME280;41125;48.752;9.168;2023-04-30T00:15:35;97160.28;;;9.67;94.53
55263;BME280;41125;48.752;9.168;2023-04-30T00:16:08;97164.09;;;9.66;95.12
55263;BME280;41125;48.752;9.168;2023-04-30T00:16:39;97168.41;;;9.67;94.91
55263;BME280;41125;48.752;9.168;2023-04-30T00:17:10;97164.09;;;9.66;95.08
55263;BME280;41125;48.752;9.168;2023-04-30T00:17:42;97164.91;;;9.66;94.96
55263;BME280;41125;48.752;9.168;2023-04-30T00:18:13;97165.72;;;9.67;95.22
55263;BME280;41125;48.752;9.168;2023-04-30T00:18:44;97160.28;;;9.67;95.11
55263;BME280;41125;48.752;9.168;2023-04-30T00:19:16;97159.47;;;9.66;94.93
55263;BME280;41125;48.752;9.168;2023-04-30T00:19:47;97166.50;;;9.67;94.84
55263;BME280;41125;48.752;9.168;2023-04-30T00:20:18;97165.44;;;9.68;94.36
55263;BME280;41125;48.752;9.168;2023-04-30T00:20:49;97158.09;;;9.69;94.20
55263;BME280;41125;48.752;9.168;2023-04-30T00:21:23;97168.94;;;9.69;94.14
55263;BME280;41125;48.752;9.168;2023-04-30T00:21:54;97164.63;;;9.68;93.90
55263;BME280;41125;48.752;9.168;2023-04-30T00:22:25;97157.28;;;9.68;93.87
55263;BME280;41125;48.752;9.168;2023-04-30T00:22:56;97165.16;;;9.70;93.62
55263;BME280;41125;48.752;9.168;2023-04-30T00:23:28;97162.44;;;9.70;93.40
55263;BME280;41125;48.752;9.168;2023-04-30T00:23:59;97164.34;;;9.69;93.05
55263;BME280;41125;48.752;9.168;2023-04-30T00:24:30;97165.16;;;9.70;93.07
55263;BME280;41125;48.752;9.168;2023-04-30T00:25:02;97165.16;;;9.70;92.90
55263;BME280;41125;48.752;9.168;2023-04-30T00:25:34;97169.44;;;9.71;92.62
55263;BME280;41125;48.752;9.168;2023-04-30T00:26:05;97159.72;;;9.70;92.98
55263;BME280;41125;48.752;9.168;2023-04-30T00:26:36;97165.16;;;9.70;92.97
55263;BME280;41125;48.752;9.168;2023-04-30T00:27:08;97159.72;;;9.70;92.99
55263;BME280;41125;48.752;9.168;2023-04-30T00:27:39;97161.31;;;9.71;92.98
55263;BME280;41125;48.752;9.168;2023-04-30T00:28:10;97160.50;;;9.70;92.99
55263;BME280;41125;48.752;9.168;2023-04-30T00:28:42;97161.31;;;9.71;93.25
55263;BME280;41125;48.752;9.168;2023-04-30T00:29:13;97163.22;;;9.70;93.01
55263;BME280;41125;48.752;9.168;2023-04-30T00:29:45;97164.03;;;9.71;92.95
55263;BME280;41125;48.752;9.168;2023-04-30T00:30:16;97161.31;;;9.71;92.85
55263;BME280;41125;48.752;9.168;2023-04-30T00:30:47;97157.50;;;9.72;92.96
55263;BME280;41125;48.752;9.168;2023-04-30T00:31:19;97165.37;;;9.73;93.09
55263;BME280;41125;48.752;9.168;2023-04-30T00:31:50;97162.94;;;9.72;93.07
55263;BME280;41125;48.752;9.168;2023-04-30T00:32:21;97162.66;;;9.73;93.02
55263;BME280;41125;48.752;9.168;2023-04-30T00:32:52;97168.34;;;9.72;92.83
55263;BME280;41125;48.752;9.168;2023-04-30T00:33:24;97162.94;;;9.72;92.45
55263;BME280;41125;48.752;9.168;2023-04-30T00:33:56;97161.31;;;9.71;92.50
55263;BME280;41125;48.752;9.168;2023-04-30T00:34:27;97166.75;;;9.71;92.60
55263;BME280;41125;48.752;9.168;2023-04-30T00:34:59;97165.94;;;9.70;92.96
55263;BME280;41125;48.752;9.168;2023-04-30T00:35:30;97166.75;;;9.71;93.05
55263;BME280;41125;48.752;9.168;2023-04-30T00:36:02;97165.16;;;9.70;93.22
55263;BME280;41125;48.752;9.168;2023-04-30T00:36:33;97165.16;;;9.70;93.31
55263;BME280;41125;48.752;9.168;2023-04-30T00:37:04;97172.16;;;9.71;93.07
55263;BME280;41125;48.752;9.168;2023-04-30T00:37:35;97164.03;;;9.71;93.07
55263;BME280;41125;48.752;9.168;2023-04-30T00:38:06;97165.16;;;9.70;92.94
55263;BME280;41125;48.752;9.168;2023-04-30T00:38:38;97160.50;;;9.70;92.97
55263;BME280;41125;48.752;9.168;2023-04-30T00:39:10;97161.31;;;9.71;92.97
55263;BME280;41125;48.752;9.168;2023-04-30T00:39:41;97168.94;;;9.69;92.35
55263;BME280;41125;48.752;9.168;2023-04-30T00:40:12;97167.31;;;9.68;92.61
55263;BME280;41125;48.752;9.168;2023-04-30T00:40:44;97163.53;;;9.69;92.61
55263;BME280;41125;48.752;9.168;2023-04-30T00:41:16;97168.94;;;9.69;92.74
55263;BME280;41125;48.752;9.168;2023-04-30T00:41:51;97170.56;;;9.70;92.86
55263;BME280;41125;48.752;9.168;2023-04-30T00:42:23;97168.94;;;9.69;92.71
55263;BME280;41125;48.752;9.168;2023-04-30T00:42:54;97163.53;;;9.69;92.68
55263;BME280;41125;48.752;9.168;2023-04-30T00:43:25;97161.91;;;9.68;92.82
55263;BME280;41125;48.752;9.168;2023-04-30T00:43:56;97162.94;;;9.72;92.57
55263;BME280;41125;48.752;9.168;2023-04-30T00:44:28;97167.53;;;9.71;92.66
55263;BME280;41125;48.752;9.168;2023-04-30T00:44:59;97163.75;;;9.72;92.43
55263;BME280;41125;48.752;9.168;2023-04-30T00:45:30;97167.25;;;9.73;92.30
55263;BME280;41125;48.752;9.168;2023-04-30T00:46:02;97173.78;;;9.72;92.36
55263;BME280;41125;48.752;9.168;2023-04-30T00:46:35;97167.84;;;9.70;92.24
55263;BME280;41125;48.752;9.168;2023-04-30T00:47:06;97170.56;;;9.70;92.24
55263;BME280;41125;48.752;9.168;2023-04-30T00:47:41;97171.34;;;9.70;92.25
55263;BME280;41125;48.752;9.168;2023-04-30T00:48:12;97173.28;;;9.70;92.11
55263;BME280;41125;48.752;9.168;2023-04-30T00:48:43;97178.16;;;9.68;92.03
55263;BME280;41125;48.752;9.168;2023-04-30T00:49:15;97167.31;;;9.68;92.03
55263;BME280;41125;48.752;9.168;2023-04-30T00:49:46;97159.47;;;9.66;91.81
55263;BME280;41125;48.752;9.168;2023-04-30T00:50:18;97168.69;;;9.65;91.76
55263;BME280;41125;48.752;9.168;2023-04-30T00:50:50;97174.09;;;9.65;91.86
55263;BME280;41125;48.752;9.168;2023-04-30T00:51:23;97166.78;;;9.66;91.87
55263;BME280;41125;48.752;9.168;2023-04-30T00:51:54;97174.91;;;9.66;91.93
55263;BME280;41125;48.752;9.168;2023-04-30T00:52:28;97171.41;;;9.65;91.94
55263;BME280;41125;48.752;9.168;2023-04-30T00:53:00;97175.47;;;9.63;92.15
55263;BME280;41125;48.752;9.168;2023-04-30T00:53:32;97177.09;;;9.64;92.18
55263;BME280;41125;48.752;9.168;2023-04-30T00:54:05;97169.25;;;9.62;91.94
55263;BME280;41125;48.752;9.168;2023-04-30T00:54:37;97179.28;;;9.62;91.75
55263;BME280;41125;48.752;9.168;2023-04-30T00:55:12;97174.13;;;9.60;91.50
55263;BME280;41125;48.752;9.168;2023-04-30T00:55:44;97165.19;;;9.60;91.49
55263;BME280;41125;48.752;9.168;2023-04-30T00:56:19;97173.84;;;9.62;91.35
55263;BME280;41125;48.752;9.168;2023-04-30T00:56:51;97168.44;;;9.62;91.30
55263;BME280;41125;48.752;9.168;2023-04-30T00:57:22;97177.09;;;9.64;91.54
55263;BME280;41125;48.752;9.168;2023-04-30T00:57:55;97169.50;;;9.66;91.50
55263;BME280;41125;48.752;9.168;2023-04-30T00:58:27;97173.03;;;9.66;91.58
55263;BME280;41125;48.752;9.168;2023-04-30T00:58:58;97169.97;;;9.73;91.06
55263;BME280;41125;48.752;9.168;2023-04-30T00:59:30;97162.38;;;9.75;90.44
55263;BME280;41125;48.752;9.168;2023-04-30T01:00:03;97175.38;;;9.78;90.19
55263;BME280;41125;48.752;9.168;2023-04-30T01:00:36;97171.03;;;9.77;90.10
55263;BME280;41125;48.752;9.168;2023-04-30T01:01:07;97173.22;;;9.75;89.78
55263;BME280;41125;48.752;9.168;2023-04-30T01:01:39;97173.22;;;9.75;89.76
55263;BME280;41125;48.752;9.168;2023-04-30T01:02:12;97168.31;;;9.77;89.99
55263;BME280;41125;48.752;9.168;2023-04-30T01:02:43;97172.66;;;9.78;89.62
55263;BME280;41125;48.752;9.168;2023-04-30T01:03:14;97176.47;;;9.77;89.83
55263;BME280;41125;48.752;9.168;2023-04-30T01:03:46;97165.09;;;9.75;90.05
55263;BME280;41125;48.752;9.168;2023-04-30T01:04:17;97168.88;;;9.74;90.23
55263;BME280;41125;48.752;9.168;2023-04-30T01:04:49;97165.66;;;9.72;90.44
55263;BME280;41125;48.752;9.168;2023-04-30T01:05:22;97166.75;;;9.71;90.55
55263;BME280;41125;48.752;9.168;2023-04-30T01:05:54;97171.34;;;9.70;90.61
55263;BME280;41125;48.752;9.168;2023-04-30T01:06:26;97167.31;;;9.68;90.47
55263;BME280;41125;48.752;9.168;2023-04-30T01:06:58;97170.03;;;9.68;90.37
55263;BME280;41125;48.752;9.168;2023-04-30T01:07:34;97172.75;;;9.68;90.58
55263;BME280;41125;48.752;9.168;2023-04-30T01:08:07;97164.09;;;9.66;90.77
55263;BME280;41125;48.752;9.168;2023-04-30T01:08:39;97164.09;;;9.66;90.97
55263;BME280;41125;48.752;9.168;2023-04-30T01:09:11;97166.78;;;9.66;91.06
55263;BME280;41125;48.752;9.168;2023-04-30T01:09:45;97166.78;;;9.66;91.39
55263;BME280;41125;48.752;9.168;2023-04-30T01:10:18;97176.81;;;9.65;91.10
55263;BME280;41125;48.752;9.168;2023-04-30T01:12:13;97171.13;;;9.67;91.46
55263;BME280;41125;48.752;9.168;2023-04-30T01:14:09;97164.09;;;9.66;91.30
55263;BME280;41125;48.752;9.168;2023-04-30T01:15:53;97167.88;;;9.65;91.22
55263;BME280;41125;48.752;9.168;2023-04-30T01:16:29;97173.31;;;9.65;91.31
55263;BME280;41125;48.752;9.168;2023-04-30T01:17:22;97170.88;;;9.63;91.10
55263;BME280;41125;48.752;9.168;2023-04-30T01:18:04;97165.44;;;9.63;91.05
55263;BME280;41125;48.752;9.168;2023-04-30T01:18:43;97160.03;;;9.63;90.89
55263;BME280;41125;48.752;9.168;2023-04-30T01:19:48;97168.44;;;9.62;90.80
55263;BME280;41125;48.752;9.168;2023-04-30T01:20:23;97163.03;;;9.62;90.73
55263;BME280;41125;48.752;9.168;2023-04-30T01:21:03;97158.16;;;9.59;90.54
55263;BME280;41125;48.752;9.168;2023-04-30T01:21:37;97163.56;;;9.59;90.74
55263;BME280;41125;48.752;9.168;2023-04-30T01:23:22;97165.75;;;9.57;90.41
55263;BME280;41125;48.752;9.168;2023-04-30T01:24:42;97159.53;;;9.56;90.40
55263;BME280;41125;48.752;9.168;2023-04-30T01:28:13;97160.88;;;9.54;91.65
55263;BME280;41125;48.752;9.168;2023-04-30T01:28:49;97160.34;;;9.52;91.50
55263;BME280;41125;48.752;9.168;2023-04-30T01:29:23;97159.28;;;9.53;91.29
55263;BME280;41125;48.752;9.168;2023-04-30T01:29:57;97162.25;;;9.51;91.51
55263;BME280;41125;48.752;9.168;2023-04-30T01:30:30;97157.66;;;9.52;91.89
55263;BME280;41125;48.752;9.168;2023-04-30T01:31:02;97156.84;;;9.51;91.45
55263;BME280;41125;48.752;9.168;2023-04-30T01:31:34;97154.94;;;9.52;91.74
55263;BME280;41125;48.752;9.168;2023-04-30T01:32:05;97163.06;;;9.52;91.67
55263;BME280;41125;48.752;9.168;2023-04-30T01:32:36;97152.22;;;9.52;92.00
55263;BME280;41125;48.752;9.168;2023-04-30T01:33:07;97154.94;;;9.52;91.67
55263;BME280;41125;48.752;9.168;2023-04-30T01:33:39;97159.28;;;9.53;91.67
55263;BME280;41125;48.752;9.168;2023-04-30T01:34:10;97160.09;;;9.53;91.81
55263;BME280;41125;48.752;9.168;2023-04-30T01:34:41;97159.28;;;9.53;91.80
55263;BME280;41125;48.752;9.168;2023-04-30T01:35:13;97154.66;;;9.53;91.64
55263;BME280;41125;48.752;9.168;2023-04-30T01:37:23;97153.84;;;9.53;91.65
55263;BME280;41125;48.752;9.168;2023-04-30T01:41:01;97151.69;;;9.50;92.00
55263;BME280;41125;48.752;9.168;2023-04-30T01:42:04;97157.41;;;9.48;92.02
55263;BME280;41125;48.752;9.168;2023-04-30T01:42:51;97149.00;;;9.50;91.50
55263;BME280;41125;48.752;9.168;2023-04-30T01:43:44;97150.34;;;9.47;91.16
55263;BME280;41125;48.752;9.168;2023-04-30T01:45:06;97150.34;;;9.47;91.08
55263;BME280;41125;48.752;9.168;2023-04-30T01:46:16;97155.78;;;9.47;90.81
55263;BME280;41125;48.752;9.168;2023-04-30T01:47:01;97159.84;;;9.45;90.82
55263;BME280;41125;48.752;9.168;2023-04-30T01:47:52;97159.03;;;9.44;90.91
55263;BME280;41125;48.752;9.168;2023-04-30T01:49:41;97160.13;;;9.43;91.09
55263;BME280;41125;48.752;9.168;2023-04-30T01:50:37;97153.91;;;9.43;90.98
55263;BME280;41125;48.752;9.168;2023-04-30T01:51:30;97152.28;;;9.41;91.07
55263;BME280;41125;48.752;9.168;2023-04-30T01:52:15;97157.16;;;9.39;91.77
55263;BME280;41125;48.752;9.168;2023-04-30T01:53:00;97155.53;;;9.38;91.48
55263;BME280;41125;48.752;9.168;2023-04-30T01:53:38;97160.97;;;9.38;91.52
55263;BME280;41125;48.752;9.168;2023-04-30T01:54:21;97156.63;;;9.37;91.37
55263;BME280;41125;48.752;9.168;2023-04-30T01:55:03;97167.47;;;9.37;91.27
55263;BME280;41125;48.752;9.168;2023-04-30T01:55:56;97160.44;;;9.36;91.62
55263;BME280;41125;48.752;9.168;2023-04-30T01:56:32;97157.72;;;9.36;91.74
55263;BME280;41125;48.752;9.168;2023-04-30T01:57:14;97150.72;;;9.35;91.63
55263;BME280;41125;48.752;9.168;2023-04-30T01:57:58;97163.13;;;9.36;91.38
55263;BME280;41125;48.752;9.168;2023-04-30T01:58:31;97158.53;;;9.37;91.49
55263;BME280;41125;48.752;9.168;2023-04-30T01:59:03;97160.97;;;9.38;91.36
55263;BME280;41125;48.752;9.168;2023-04-30T01:59:38;97153.66;;;9.39;91.34
55263;BME280;41125;48.752;9.168;2023-04-30T02:00:10;97152.84;;;9.38;91.12
55263;BME280;41125;48.752;9.168;2023-04-30T02:00:42;97152.84;;;9.38;91.14
55263;BME280;41125;48.752;9.168;2023-04-30T02:01:31;97162.03;;;9.37;91.04
55263;BME280;41125;48.752;9.168;2023-04-30T02:02:03;97156.63;;;9.37;90.63
55263;BME280;41125;48.752;9.168;2023-04-30T02:02:35;97154.19;;;9.36;90.15
55263;BME280;41125;48.752;9.168;2023-04-30T02:03:06;97153.69;;;9.34;90.39
55263;BME280;41125;48.752;9.168;2023-04-30T02:03:38;97157.22;;;9.34;90.23
55263;BME280;41125;48.752;9.168;2023-04-30T02:04:10;97157.72;;;9.36;90.63
55263;BME280;41125;48.752;9.168;2023-04-30T02:04:41;97153.91;;;9.37;90.76
55263;BME280;41125;48.752;9.168;2023-04-30T02:05:12;97163.66;;;9.38;90.60
55263;BME280;41125;48.752;9.168;2023-04-30T02:05:44;97152.84;;;9.38;90.73
55263;BME280;41125;48.752;9.168;2023-04-30T02:06:15;97157.16;;;9.39;90.73
55263;BME280;41125;48.752;9.168;2023-04-30T02:06:46;97158.25;;;9.38;89.29
55263;BME280;41125;48.752;9.168;2023-04-30T02:07:40;97152.56;;;9.40;89.05
55263;BME280;41125;48.752;9.168;2023-04-30T02:08:12;97155.00;;;9.36;88.93
55263;BME280;41125;48.752;9.168;2023-04-30T02:08:43;97156.91;;;9.36;89.23
55263;BME280;41125;48.752;9.168;2023-04-30T02:09:15;97158.03;;;9.35;89.27
55263;BME280;41125;48.752;9.168;2023-04-30T02:09:46;97156.41;;;9.34;89.48
55263;BME280;41125;48.752;9.168;2023-04-30T02:10:21;97159.13;;;9.34;89.10
55263;BME280;41125;48.752;9.168;2023-04-30T02:10:52;97156.41;;;9.34;89.14
55263;BME280;41125;48.752;9.168;2023-04-30T02:11:24;97163.13;;;9.36;89.36
55263;BME280;41125;48.752;9.168;2023-04-30T02:11:56;97155.53;;;9.38;89.39
55263;BME280;41125;48.752;9.168;2023-04-30T02:12:27;97161.50;;;9.40;89.44
55263;BME280;41125;48.752;9.168;2023-04-30T02:13:00;97165.00;;;9.41;89.07
55263;BME280;41125;48.752;9.168;2023-04-30T02:13:31;97164.72;;;9.43;89.29
55263;BME280;41125;48.752;9.168;2023-04-30T02:14:02;97157.44;;;9.38;89.57
55263;BME280;41125;48.752;9.168;2023-04-30T02:14:33;97164.72;;;9.43;89.49
55263;BME280;41125;48.752;9.168;2023-04-30T02:15:06;97163.13;;;9.41;89.60
55263;BME280;41125;48.752;9.168;2023-04-30T02:15:39;97159.31;;;9.43;89.68
55263;BME280;41125;48.752;9.168;2023-04-30T02:16:10;97167.72;;;9.41;90.41
55263;BME280;41125;48.752;9.168;2023-04-30T02:17:47;97157.44;;;9.38;90.00
55263;BME280;41125;48.752;9.168;2023-04-30T02:18:19;97160.44;;;9.36;89.49
55263;BME280;41125;48.752;9.168;2023-04-30T02:18:51;97156.13;;;9.35;89.94
55263;BME280;41125;48.752;9.168;2023-04-30T02:19:22;97165.56;;;9.38;89.89
55263;BME280;41125;48.752;9.168;2023-04-30T02:19:53;97165.28;;;9.39;89.83
55263;BME280;41125;48.752;9.168;2023-04-30T02:20:25;97165.28;;;9.39;89.35
55263;BME280;41125;48.752;9.168;2023-04-30T02:20:57;97153.66;;;9.39;89.32
55263;BME280;41125;48.752;9.168;2023-04-30T02:21:30;97159.88;;;9.39;89.16
55263;BME280;41125;48.752;9.168;2023-04-30T02:22:02;97158.25;;;9.38;89.30
55263;BME280;41125;48.752;9.168;2023-04-30T02:22:35;97156.34;;;9.39;89.26
55263;BME280;41125;48.752;9.168;2023-04-30T02:23:08;97160.97;;;9.38;89.18
55263;BME280;41125;48.752;9.168;2023-04-30T02:23:48;97153.09;;;9.37;89.38
55263;BME280;41125;48.752;9.168;2023-04-30T02:24:20;97156.63;;;9.37;88.81
55263;BME280;41125;48.752;9.168;2023-04-30T02:24:51;97151.50;;;9.36;88.48
55263;BME280;41125;48.752;9.168;2023-04-30T02:25:26;97158.31;;;9.33;88.26
55263;BME280;41125;48.752;9.168;2023-04-30T02:25:58;97159.38;;;9.32;88.43
55263;BME280;41125;48.752;9.168;2023-04-30T02:26:29;97157.75;;;9.31;88.54
55263;BME280;41125;48.752;9.168;2023-04-30T02:27:03;97145.31;;;9.30;88.80
55263;BME280;41125;48.752;9.168;2023-04-30T02:27:34;97154.53;;;9.29;88.84
55263;BME280;41125;48.752;9.168;2023-04-30T02:28:07;97155.63;;;9.28;89.04
55263;BME280;41125;48.752;9.168;2023-04-30T02:28:38;97158.31;;;9.28;89.20
55263;BME280;41125;48.752;9.168;2023-04-30T02:29:10;97155.34;;;9.30;89.27
55263;BME280;41125;48.752;9.168;2023-04-30T02:29:42;97151.53;;;9.31;89.20
55263;BME280;41125;48.752;9.168;2023-04-30T02:30:13;97152.34;;;9.31;89.18
55263;BME280;41125;48.752;9.168;2023-04-30T02:30:44;97152.34;;;9.31;89.37
55263;BME280;41125;48.752;9.168;2023-04-30T02:31:15;97152.34;;;9.31;89.39
55263;BME280;41125;48.752;9.168;2023-04-30T02:31:47;97153.97;;;9.32;89.45
55263;BME280;41125;48.752;9.168;2023-04-30T02:32:19;97151.25;;;9.32;89.21
55263;BME280;41125;48.752;9.168;2023-04-30T02:32:50;97153.97;;;9.32;89.55
55263;BME280;41125;48.752;9.168;2023-04-30T02:33:22;97153.16;;;9.32;89.38
55263;BME280;41125;48.752;9.168;2023-04-30T02:33:53;97153.72;;;9.29;89.63
55263;BME280;41125;48.752;9.168;2023-04-30T02:34:25;97155.63;;;9.28;89.39
55263;BME280;41125;48.752;9.168;2023-04-30T02:34:56;97152.91;;;9.28;89.17
55263;BME280;41125;48.752;9.168;2023-04-30T02:35:28;97156.69;;;9.27;89.16
55263;BME280;41125;48.752;9.168;2023-04-30T02:36:00;97150.47;;;9.27;89.33
55263;BME280;41125;48.752;9.168;2023-04-30T02:36:31;97145.88;;;9.27;89.18
55263;BME280;41125;48.752;9.168;2023-04-30T02:37:07;97144.25;;;9.26;89.38
55263;BME280;41125;48.752;9.168;2023-04-30T02:37:39;97147.75;;;9.27;89.27
55263;BME280;41125;48.752;9.168;2023-04-30T02:38:10;97150.47;;;9.27;89.47
55263;BME280;41125;48.752;9.168;2023-04-30T02:38:42;97150.47;;;9.27;89.56
55263;BME280;41125;48.752;9.168;2023-04-30T02:39:13;97151.28;;;9.27;89.73
55263;BME280;41125;48.752;9.168;2023-04-30T02:39:44;97151.28;;;9.27;89.69
55263;BME280;41125;48.752;9.168;2023-04-30T02:40:16;97153.47;;;9.25;89.91
55263;BME280;41125;48.752;9.168;2023-04-30T02:40:47;97150.22;;;9.23;89.69
55263;BME280;41125;48.752;9.168;2023-04-30T02:41:18;97155.63;;;9.23;90.22
55263;BME280;41125;48.752;9.168;2023-04-30T02:41:50;97154.00;;;9.22;90.05
55263;BME280;41125;48.752;9.168;2023-04-30T02:42:22;97148.06;;;9.20;90.02
55263;BME280;41125;48.752;9.168;2023-04-30T02:42:54;97150.78;;;9.20;90.01
55263;BME280;41125;48.752;9.168;2023-04-30T02:43:27;97150.78;;;9.20;89.82
55263;BME280;41125;48.752;9.168;2023-04-30T02:43:58;97148.34;;;9.19;89.35
55263;BME280;41125;48.752;9.168;2023-04-30T02:44:29;97152.13;;;9.18;89.05
55263;BME280;41125;48.752;9.168;2023-04-30T02:45:01;97152.13;;;9.18;89.74
55263;BME280;41125;48.752;9.168;2023-04-30T02:45:33;97151.31;;;9.17;90.21
55263;BME280;41125;48.752;9.168;2023-04-30T02:46:04;97147.53;;;9.18;90.29
55263;BME280;41125;48.752;9.168;2023-04-30T02:46:36;97156.72;;;9.17;90.39
55263;BME280;41125;48.752;9.168;2023-04-30T02:47:07;97155.94;;;9.17;90.20
55263;BME280;41125;48.752;9.168;2023-04-30T02:47:45;97150.78;;;9.15;90.63
55263;BME280;41125;48.752;9.168;2023-04-30T02:48:16;97156.19;;;9.15;90.42
55263;BME280;41125;48.752;9.168;2023-04-30T02:48:47;97150.78;;;9.15;90.67
55263;BME280;41125;48.752;9.168;2023-04-30T02:49:21;97151.88;;;9.14;91.24
55263;BME280;41125;48.752;9.168;2023-04-30T02:49:52;97150.78;;;9.15;91.72
55263;BME280;41125;48.752;9.168;2023-04-30T02:50:23;97150.78;;;9.15;91.84
55263;BME280;41125;48.752;9.168;2023-04-30T02:50:55;97155.12;;;9.16;92.00
55263;BME280;41125;48.752;9.168;2023-04-30T02:51:27;97155.12;;;9.16;92.25
55263;BME280;41125;48.752;9.168;2023-04-30T02:51:58;97157.81;;;9.16;92.22
55263;BME280;41125;48.752;9.168;2023-04-30T02:52:31;97153.50;;;9.15;91.91
55263;BME280;41125;48.752;9.168;2023-04-30T02:53:02;97156.19;;;9.15;92.05
55263;BME280;41125;48.752;9.168;2023-04-30T02:53:34;97149.97;;;9.15;91.92
55263;BME280;41125;48.752;9.168;2023-04-30T02:54:06;97151.88;;;9.14;91.82
55263;BME280;41125;48.752;9.168;2023-04-30T02:54:37;97150.25;;;9.13;91.61
55263;BME280;41125;48.752;9.168;2023-04-30T02:55:09;97154.03;;;9.12;91.96
55263;BME280;41125;48.752;9.168;2023-04-30T02:55:41;97151.59;;;9.11;92.07
55263;BME280;41125;48.752;9.168;2023-04-30T02:56:12;97151.88;;;9.09;92.24
55263;BME280;41125;48.752;9.168;2023-04-30T02:56:44;97150.25;;;9.08;92.60
55263;BME280;41125;48.752;9.168;2023-04-30T02:57:17;97152.16;;;9.07;92.86
55263;BME280;41125;48.752;9.168;2023-04-30T02:57:51;97149.72;;;9.06;93.05
55263;BME280;41125;48.752;9.168;2023-04-30T02:58:22;97151.63;;;9.05;93.35
55263;BME280;41125;48.752;9.168;2023-04-30T02:58:54;97151.91;;;9.04;92.97
55263;BME280;41125;48.752;9.168;2023-04-30T02:59:25;97151.09;;;9.03;92.94
55263;BME280;41125;48.752;9.168;2023-04-30T02:59:57;97154.06;;;9.02;92.90
55263;BME280;41125;48.752;9.168;2023-04-30T03:00:29;97151.37;;;9.02;92.93
55263;BME280;41125;48.752;9.168;2023-04-30T03:01:00;97149.47;;;9.02;92.50
55263;BME280;41125;48.752;9.168;2023-04-30T03:01:31;97154.59;;;9.04;92.62
55263;BME280;41125;48.752;9.168;2023-04-30T03:02:04;97148.09;;;9.05;92.39
55263;BME280;41125;48.752;9.168;2023-04-30T03:02:36;97152.44;;;9.06;91.97
55263;BME280;41125;48.752;9.168;2023-04-30T03:03:07;97156.75;;;9.07;92.06
55263;BME280;41125;48.752;9.168;2023-04-30T03:03:38;97153.53;;;9.05;92.03
55263;BME280;41125;48.752;9.168;2023-04-30T03:04:11;97146.50;;;9.04;91.97
55263;BME280;41125;48.752;9.168;2023-04-30T03:04:42;97151.91;;;9.04;92.21
55263;BME280;41125;48.752;9.168;2023-04-30T03:05:13;97151.09;;;9.03;91.87
55263;BME280;41125;48.752;9.168;2023-04-30T03:05:48;97149.47;;;9.02;92.29
55263;BME280;41125;48.752;9.168;2023-04-30T03:06:20;97154.06;;;9.02;92.21
55263;BME280;41125;48.752;9.168;2023-04-30T03:06:55;97149.75;;;9.01;92.16
55263;BME280;41125;48.752;9.168;2023-04-30T03:07:26;97155.16;;;9.01;92.33
55263;BME280;41125;48.752;9.168;2023-04-30T03:07:58;97149.50;;;8.97;92.30
55263;BME280;41125;48.752;9.168;2023-04-30T03:08:29;97146.81;;;8.97;92.78
55263;BME280;41125;48.752;9.168;2023-04-30T03:09:02;97148.69;;;8.97;92.76
55263;BME280;41125;48.752;9.168;2023-04-30T03:09:34;97149.78;;;8.96;93.20
55263;BME280;41125;48.752;9.168;2023-04-30T03:10:07;97146.53;;;8.94;92.84
55263;BME280;41125;48.752;9.168;2023-04-30T03:10:39;97150.34;;;8.93;92.65
55263;BME280;41125;48.752;9.168;2023-04-30T03:11:13;97150.34;;;8.93;92.65
55263;BME280;41125;48.752;9.168;2023-04-30T03:11:44;97143.31;;;8.92;92.43
55263;BME280;41125;48.752;9.168;2023-04-30T03:12:15;97150.63;;;8.91;92.14
55263;BME280;41125;48.752;9.168;2023-04-30T03:12:46;97146.00;;;8.92;91.91
55263;BME280;41125;48.752;9.168;2023-04-30T03:13:18;97152.50;;;8.91;92.50
55263;BME280;41125;48.752;9.168;2023-04-30T03:13:49;97147.09;;;8.91;92.56
55263;BME280;41125;48.752;9.168;2023-04-30T03:14:24;97147.09;;;8.91;92.85
55263;BME280;41125;48.752;9.168;2023-04-30T03:14:56;97148.72;;;8.92;92.91